Time;durP1;ratioP1;P1;durP2;ratioP2;P2;SDS_P1;SDS_P2;PMS_P1;PMS_P2;Temp;Humidity;BMP_temperature;BMP_pressure;BME280_temperature;BME280_humidity;BME280_pressure;Samples;Min_cycle;Max_cycle;Signal;HPM_P1;HPM_P2
2022/03/05 00:00:35;;;;;;;15.37;9.67;;;0.80;99.90;;;;;;5020490;28;20174;-64
2022/03/05 00:03:01;;;;;;;14.60;9.73;;;0.80;99.90;;;;;;5021643;28;20218;-65
2022/03/05 00:05:27;;;;;;;20.57;10.10;;;0.80;99.90;;;;;;5021556;28;20236;-65
2022/03/05 00:07:53;;;;;;;14.47;9.47;;;0.90;99.90;;;;;;5015837;28;20184;-65
2022/03/05 00:10:19;;;;;;;17.10;10.23;;;0.90;99.90;;;;;;5014689;28;20664;-62
2022/03/05 00:12:46;;;;;;;18.63;9.10;;;0.90;99.90;;;;;;5014195;28;20165;-63
2022/03/05 00:15:11;;;;;;;14.87;7.80;;;0.90;99.90;;;;;;4996273;28;20227;-63
2022/03/05 00:17:37;;;;;;;12.10;7.57;;;0.80;99.90;;;;;;5013511;28;20177;-64
2022/03/05 00:20:05;;;;;;;14.70;6.97;;;0.70;99.90;;;;;;5014151;28;20187;-63
2022/03/05 00:22:32;;;;;;;12.87;7.57;;;0.70;99.90;;;;;;5013763;28;20224;-64
2022/03/05 00:24:58;;;;;;;15.60;7.20;;;0.80;99.90;;;;;;5014263;28;20200;-63
2022/03/05 00:27:23;;;;;;;13.23;6.83;;;0.60;99.90;;;;;;5013448;28;20224;-63
2022/03/05 00:29:50;;;;;;;14.40;8.33;;;0.60;99.90;;;;;;5013956;28;20239;-62
2022/03/05 00:32:16;;;;;;;13.20;7.13;;;0.80;99.90;;;;;;5014094;28;20169;-63
2022/03/05 00:34:41;;;;;;;10.27;6.80;;;0.80;99.90;;;;;;5015022;28;20200;-63
2022/03/05 00:37:08;;;;;;;10.70;6.90;;;0.80;99.90;;;;;;5020733;28;20185;-63
2022/03/05 00:39:34;;;;;;;12.87;6.93;;;0.80;99.90;;;;;;5025638;28;20252;-64
2022/03/05 00:41:59;;;;;;;11.27;6.97;;;0.80;99.90;;;;;;5025622;28;20232;-64
2022/03/05 00:44:25;;;;;;;14.37;8.87;;;0.80;99.90;;;;;;5025888;28;20169;-63
2022/03/05 00:46:51;;;;;;;11.00;7.03;;;0.80;99.90;;;;;;5019919;28;20613;-64
2022/03/05 00:49:16;;;;;;;12.27;6.83;;;0.80;99.90;;;;;;5016952;28;20484;-63
2022/03/05 00:51:42;;;;;;;15.87;8.47;;;0.80;99.90;;;;;;5017501;28;20581;-63
2022/03/05 00:54:08;;;;;;;21.07;12.23;;;0.90;99.90;;;;;;5018373;28;20204;-65
2022/03/05 00:56:34;;;;;;;14.83;8.40;;;0.90;99.90;;;;;;5001098;28;20488;-64
2022/03/05 00:59:00;;;;;;;12.37;8.23;;;0.80;99.90;;;;;;5017091;28;20562;-64
2022/03/05 01:01:26;;;;;;;13.93;8.43;;;0.90;99.90;;;;;;5016983;28;20178;-64
2022/03/05 01:03:51;;;;;;;15.97;8.57;;;1.00;99.90;;;;;;4999893;28;20276;-64
2022/03/05 01:06:17;;;;;;;16.83;8.33;;;1.10;99.90;;;;;;5017338;28;20694;-63
2022/03/05 01:08:43;;;;;;;14.63;8.27;;;1.20;99.90;;;;;;4999883;28;20223;-64
2022/03/05 01:11:08;;;;;;;15.43;7.67;;;1.10;99.90;;;;;;5016862;28;20162;-63
2022/03/05 01:13:38;;;;;;;20.87;9.20;;;1.20;99.90;;;;;;5016730;28;20280;-63
2022/03/05 01:16:04;;;;;;;13.73;7.53;;;1.20;99.90;;;;;;4999379;28;20591;-63
2022/03/05 01:18:29;;;;;;;13.60;7.67;;;1.20;99.90;;;;;;5016861;28;20197;-65
2022/03/05 01:20:55;;;;;;;13.27;7.77;;;1.10;99.90;;;;;;5017075;28;20177;-64
2022/03/05 01:23:20;;;;;;;13.23;7.70;;;1.10;99.90;;;;;;5016771;28;20524;-64
2022/03/05 01:25:46;;;;;;;14.70;8.60;;;1.10;99.90;;;;;;4998856;28;20605;-63
2022/03/05 01:28:12;;;;;;;17.10;9.33;;;1.20;99.90;;;;;;5016997;28;20176;-63
2022/03/05 01:30:38;;;;;;;17.90;9.80;;;1.30;99.90;;;;;;5016850;28;20174;-64
2022/03/05 01:33:03;;;;;;;16.10;10.07;;;1.30;99.90;;;;;;5017418;28;20390;-64
2022/03/05 01:35:29;;;;;;;20.43;9.27;;;1.30;99.90;;;;;;5016717;28;20201;-63
2022/03/05 01:37:56;;;;;;;20.00;10.10;;;1.30;99.90;;;;;;5017080;28;20220;-63
2022/03/05 01:40:22;;;;;;;18.27;10.20;;;1.10;99.90;;;;;;5016012;28;20169;-64
2022/03/05 01:42:48;;;;;;;17.07;10.03;;;1.10;99.90;;;;;;5016520;28;20216;-64
2022/03/05 01:45:14;;;;;;;16.67;9.47;;;1.00;99.90;;;;;;4998806;28;20228;-63
2022/03/05 01:47:40;;;;;;;14.07;8.37;;;1.00;99.90;;;;;;5016431;28;20166;-64
2022/03/05 01:50:07;;;;;;;14.10;8.37;;;1.00;99.90;;;;;;5018150;28;20173;-64
2022/03/05 01:52:33;;;;;;;14.80;8.23;;;1.00;99.90;;;;;;5019311;28;20181;-68
2022/03/05 01:54:59;;;;;;;15.30;8.10;;;0.90;99.90;;;;;;5003266;28;20547;-64
2022/03/05 01:57:25;;;;;;;12.77;8.27;;;0.90;99.90;;;;;;5019924;28;20173;-63
2022/03/05 01:59:50;;;;;;;16.90;8.37;;;0.90;99.90;;;;;;5020166;28;20597;-64
2022/03/05 02:02:17;;;;;;;12.50;8.23;;;1.00;99.90;;;;;;5022182;28;20228;-64
2022/03/05 02:04:43;;;;;;;16.80;8.23;;;0.90;99.90;;;;;;5016208;28;20154;-64
2022/03/05 02:07:09;;;;;;;13.70;7.70;;;1.00;99.90;;;;;;5016954;28;20226;-64
2022/03/05 02:09:35;;;;;;;9.17;6.17;;;0.90;99.90;;;;;;5018365;28;20554;-64
2022/03/05 02:12:02;;;;;;;13.13;7.57;;;0.80;99.90;;;;;;5021462;28;20166;-64
2022/03/05 02:14:27;;;;;;;12.27;7.73;;;0.80;99.90;;;;;;5024751;28;20255;-65
2022/03/05 02:16:53;;;;;;;10.37;6.73;;;0.70;99.90;;;;;;5024590;28;20169;-64
2022/03/05 02:19:19;;;;;;;11.30;6.90;;;0.80;99.90;;;;;;5007175;28;20181;-64
2022/03/05 02:21:46;;;;;;;10.40;6.87;;;0.80;99.90;;;;;;5025192;28;20269;-65
2022/03/05 02:24:11;;;;;;;12.20;7.63;;;0.90;99.90;;;;;;5022360;28;20182;-65
2022/03/05 02:26:37;;;;;;;11.80;7.00;;;1.00;99.90;;;;;;5015678;28;20237;-65
2022/03/05 02:29:03;;;;;;;12.63;7.87;;;1.00;99.90;;;;;;5015805;28;20170;-64
2022/03/05 02:31:29;;;;;;;11.43;6.90;;;1.10;99.90;;;;;;5015459;28;20169;-65
2022/03/05 02:33:55;;;;;;;16.17;7.63;;;1.10;99.90;;;;;;5015320;28;20248;-64
2022/03/05 02:36:23;;;;;;;10.67;7.00;;;1.00;99.90;;;;;;5015329;28;20673;-64
2022/03/05 02:38:50;;;;;;;12.50;7.67;;;1.00;99.90;;;;;;4997648;28;20512;-64
2022/03/05 02:41:18;;;;;;;10.90;7.27;;;0.90;99.90;;;;;;5015306;28;20154;-65
2022/03/05 02:43:47;;;;;;;12.70;7.70;;;1.00;99.90;;;;;;5015429;28;20543;-64
2022/03/05 02:46:12;;;;;;;13.60;7.20;;;1.00;99.90;;;;;;5015440;28;20173;-64
2022/03/05 02:48:38;;;;;;;11.10;7.37;;;1.00;99.90;;;;;;5015192;28;20170;-65
2022/03/05 02:51:04;;;;;;;9.40;6.83;;;0.90;99.90;;;;;;5015913;28;20173;-64
2022/03/05 02:53:31;;;;;;;17.43;7.50;;;1.00;99.90;;;;;;4997428;28;20671;-64
2022/03/05 02:55:56;;;;;;;12.17;7.73;;;1.00;99.90;;;;;;4997418;28;20189;-64
2022/03/05 02:58:22;;;;;;;12.53;8.07;;;1.00;99.90;;;;;;5015126;28;20252;-64
2022/03/05 03:00:50;;;;;;;17.23;8.47;;;1.10;99.90;;;;;;5014743;28;20252;-63
2022/03/05 03:03:15;;;;;;;14.67;8.80;;;1.10;99.90;;;;;;5015169;28;20244;-63
2022/03/05 03:05:41;;;;;;;14.10;8.17;;;0.90;99.90;;;;;;5014772;28;20193;-65
2022/03/05 03:08:06;;;;;;;14.43;9.07;;;0.90;99.90;;;;;;5014788;28;20162;-64
2022/03/05 03:10:32;;;;;;;14.07;8.83;;;0.90;99.90;;;;;;5015555;28;20197;-64
2022/03/05 03:12:58;;;;;;;15.87;8.20;;;1.00;99.90;;;;;;5018393;28;20173;-65
2022/03/05 03:15:24;;;;;;;15.47;9.00;;;0.90;99.90;;;;;;5021815;28;20174;-63
2022/03/05 03:17:51;;;;;;;14.77;8.77;;;0.90;99.90;;;;;;5022500;28;20174;-64
2022/03/05 03:20:23;;;;;;;16.47;9.73;;;0.80;99.90;;;;;;5022707;28;20192;-64
2022/03/05 03:22:49;;;;;;;14.80;8.87;;;0.80;99.90;;;;;;5017761;28;20166;-64
2022/03/05 03:25:14;;;;;;;21.63;9.70;;;0.80;99.90;;;;;;5014974;28;20185;-65
2022/03/05 03:27:40;;;;;;;15.67;9.23;;;0.60;99.90;;;;;;5013881;28;20732;-62
2022/03/05 03:30:09;;;;;;;14.67;8.80;;;0.70;99.90;;;;;;5014003;28;20169;-64
2022/03/05 03:32:34;;;;;;;20.37;10.20;;;0.70;99.90;;;;;;5013913;28;20166;-63
2022/03/05 03:35:00;;;;;;;14.83;8.90;;;0.80;99.90;;;;;;5014118;28;20277;-64
2022/03/05 03:37:29;;;;;;;17.50;10.07;;;0.80;99.90;;;;;;5014247;28;20224;-64
2022/03/05 03:39:55;;;;;;;17.07;9.20;;;0.70;99.90;;;;;;5014400;28;20175;-63
2022/03/05 03:42:22;;;;;;;21.50;9.77;;;0.80;99.90;;;;;;5014057;28;20612;-62
2022/03/05 03:44:47;;;;;;;19.00;10.53;;;0.60;99.90;;;;;;5014336;28;20161;-64
2022/03/05 03:47:13;;;;;;;17.60;10.13;;;0.70;99.90;;;;;;5014274;28;20170;-63
2022/03/05 03:49:39;;;;;;;17.27;10.00;;;0.60;99.90;;;;;;5013815;28;20178;-64
2022/03/05 03:52:05;;;;;;;15.00;9.03;;;0.70;99.90;;;;;;5013718;28;20244;-64
2022/03/05 03:54:30;;;;;;;15.50;9.50;;;0.60;99.90;;;;;;5013324;28;20204;-64
2022/03/05 03:56:56;;;;;;;17.07;9.73;;;0.50;99.90;;;;;;5013290;28;20170;-63
2022/03/05 03:59:22;;;;;;;16.50;10.00;;;0.60;99.90;;;;;;5013918;28;20177;-64
2022/03/05 04:01:48;;;;;;;15.53;10.00;;;0.60;99.90;;;;;;5013915;28;20164;-63
2022/03/05 04:04:13;;;;;;;15.90;9.50;;;0.60;99.90;;;;;;5013627;28;20248;-64
2022/03/05 04:09:23;;;;;;;14.63;9.10;;;0.60;99.90;;;;;;5013695;28;20157;-63
2022/03/05 04:11:49;;;;;;;17.00;9.53;;;0.30;99.90;;;;;;5012886;28;20165;-64
2022/03/05 04:14:14;;;;;;;16.83;9.57;;;0.40;99.90;;;;;;5013590;28;20201;-63
2022/03/05 04:16:40;;;;;;;15.47;9.83;;;0.50;99.90;;;;;;5013352;28;20166;-64
2022/03/05 04:19:05;;;;;;;16.83;9.77;;;0.50;99.90;;;;;;5013667;28;20173;-64
2022/03/05 04:21:31;;;;;;;16.57;9.77;;;0.50;99.90;;;;;;5013848;28;20192;-64
2022/03/05 04:23:57;;;;;;;21.43;10.33;;;0.60;99.90;;;;;;5013536;28;20632;-64
2022/03/05 04:26:22;;;;;;;18.20;10.33;;;0.40;99.90;;;;;;5013418;28;20221;-63
2022/03/05 04:28:48;;;;;;;19.87;9.17;;;0.20;99.90;;;;;;5013248;28;20161;-64
2022/03/05 04:31:13;;;;;;;14.30;8.90;;;0.30;99.90;;;;;;5013114;28;20245;-64
2022/03/05 04:33:39;;;;;;;15.47;9.37;;;0.50;99.90;;;;;;5013802;28;20193;-63
2022/03/05 04:36:05;;;;;;;16.83;9.30;;;0.50;99.90;;;;;;5013304;28;20174;-64
2022/03/05 04:38:31;;;;;;;15.73;9.53;;;0.60;99.90;;;;;;5013168;28;20264;-64
2022/03/05 04:40:57;;;;;;;31.87;18.73;;;0.60;99.90;;;;;;5013498;28;20162;-65
2022/03/05 04:43:22;;;;;;;21.30;10.80;;;0.60;99.90;;;;;;5013322;28;20275;-64
2022/03/05 04:45:48;;;;;;;18.23;10.00;;;0.30;99.90;;;;;;5013612;28;20180;-63
2022/03/05 04:48:14;;;;;;;27.87;13.07;;;0.20;99.90;;;;;;5012998;28;20180;-63
2022/03/05 04:50:39;;;;;;;21.13;12.17;;;0.30;99.90;;;;;;5013692;28;20216;-64
2022/03/05 04:53:05;;;;;;;25.13;12.03;;;0.30;99.90;;;;;;5013177;28;20193;-63
2022/03/05 04:55:30;;;;;;;18.73;11.17;;;0.40;99.90;;;;;;5013108;28;20224;-63
2022/03/05 04:57:56;;;;;;;17.63;10.87;;;0.30;99.90;;;;;;5013087;28;20169;-64
2022/03/05 05:00:22;;;;;;;16.83;10.17;;;0.40;99.90;;;;;;5013385;28;20166;-63
2022/03/05 05:02:48;;;;;;;16.27;9.83;;;0.30;99.90;;;;;;5012985;28;20535;-64
2022/03/05 05:05:13;;;;;;;13.03;9.47;;;0.20;99.90;;;;;;5012942;28;20166;-64
2022/03/05 05:07:39;;;;;;;18.13;9.17;;;0.30;99.90;;;;;;5013504;28;20549;-64
2022/03/05 05:10:05;;;;;;;20.97;11.07;;;0.40;99.90;;;;;;5014635;28;20641;-64
2022/03/05 05:12:31;;;;;;;27.00;15.03;;;0.40;99.90;;;;;;5017293;28;20190;-64
2022/03/05 05:14:56;;;;;;;22.07;12.90;;;0.40;99.90;;;;;;5022456;28;20193;-65
2022/03/05 05:17:22;;;;;;;18.50;10.33;;;0.40;99.90;;;;;;5021544;28;20192;-64
2022/03/05 05:19:47;;;;;;;18.00;10.53;;;0.30;99.90;;;;;;5021824;28;20632;-67
2022/03/05 05:22:13;;;;;;;18.77;9.77;;;0.40;99.90;;;;;;5005312;28;20193;-64
2022/03/05 05:24:39;;;;;;;16.67;10.57;;;0.50;99.90;;;;;;5025466;28;20200;-65
2022/03/05 05:27:05;;;;;;;16.37;9.70;;;0.60;99.90;;;;;;5020658;28;20237;-63
2022/03/05 05:29:31;;;;;;;23.43;11.80;;;0.40;99.90;;;;;;5017320;28;20166;-64
2022/03/05 05:31:58;;;;;;;18.37;10.50;;;0.40;99.90;;;;;;5016452;28;20153;-64
2022/03/05 05:34:24;;;;;;;21.63;10.90;;;0.30;99.90;;;;;;5016409;28;20208;-64
2022/03/05 05:36:50;;;;;;;18.80;10.90;;;0.50;99.90;;;;;;5016015;28;20162;-65
2022/03/05 05:39:16;;;;;;;24.10;11.73;;;0.50;99.90;;;;;;5015946;28;20166;-63
2022/03/05 05:41:42;;;;;;;23.27;12.30;;;0.50;99.90;;;;;;5016012;28;20216;-64
2022/03/05 05:44:10;;;;;;;19.40;11.23;;;0.30;99.90;;;;;;5015959;28;20181;-65
2022/03/05 05:46:36;;;;;;;22.83;11.70;;;0.30;99.90;;;;;;5016060;28;20170;-63
2022/03/05 05:49:02;;;;;;;21.33;10.37;;;0.40;99.90;;;;;;5016063;28;20169;-63
2022/03/05 05:51:29;;;;;;;19.70;10.90;;;0.40;99.90;;;;;;5016086;28;20722;-63
2022/03/05 05:53:56;;;;;;;24.77;11.67;;;0.40;99.90;;;;;;5015614;28;20288;-64
2022/03/05 05:56:22;;;;;;;23.80;11.53;;;0.30;99.90;;;;;;5016238;28;20256;-65
2022/03/05 05:58:49;;;;;;;20.87;11.47;;;0.30;99.90;;;;;;5016004;28;20165;-64
2022/03/05 06:01:15;;;;;;;16.77;10.10;;;0.20;99.90;;;;;;5015961;28;20204;-63
2022/03/05 06:03:42;;;;;;;20.97;11.10;;;0.10;99.90;;;;;;5015527;28;20268;-64
2022/03/05 06:06:07;;;;;;;28.67;12.63;;;0.20;99.90;;;;;;5015677;28;20157;-65
2022/03/05 06:08:33;;;;;;;22.27;11.57;;;0.30;99.90;;;;;;5016060;28;20173;-64
2022/03/05 06:10:59;;;;;;;38.80;14.17;;;0.20;99.90;;;;;;5016317;28;20173;-63
2022/03/05 06:13:25;;;;;;;29.93;12.80;;;0.10;99.90;;;;;;5016340;28;20193;-64
2022/03/05 06:15:51;;;;;;;18.00;11.07;;;0.10;99.90;;;;;;5015443;28;20166;-63
2022/03/05 06:18:17;;;;;;;20.97;10.97;;;0.00;99.90;;;;;;5015940;28;20490;-63
2022/03/05 06:20:43;;;;;;;19.10;10.73;;;-0.10;99.90;;;;;;5015540;28;20158;-64
2022/03/05 06:23:08;;;;;;;23.60;11.30;;;-0.10;99.90;;;;;;5016031;28;20206;-62
2022/03/05 06:25:34;;;;;;;23.50;10.30;;;0.00;99.90;;;;;;5015756;28;20269;-63
2022/03/05 06:28:00;;;;;;;19.43;10.90;;;0.00;99.90;;;;;;5015548;28;20166;-64
2022/03/05 06:30:25;;;;;;;19.83;10.53;;;0.10;99.90;;;;;;5015412;28;20240;-64
2022/03/05 06:32:51;;;;;;;24.03;10.67;;;0.10;99.90;;;;;;5015429;28;20252;-63
2022/03/05 06:35:17;;;;;;;17.63;9.67;;;0.20;99.90;;;;;;5014745;28;20245;-63
2022/03/05 06:37:43;;;;;;;18.00;9.80;;;0.30;99.90;;;;;;5015802;28;20188;-63
2022/03/05 06:40:12;;;;;;;14.77;9.27;;;0.20;99.90;;;;;;5015143;28;20665;-63
2022/03/05 06:42:39;;;;;;;15.43;9.10;;;0.10;99.90;;;;;;5014715;28;20216;-63
2022/03/05 06:45:08;;;;;;;15.57;9.53;;;0.10;99.90;;;;;;5015256;28;20285;-63
2022/03/05 06:47:36;;;;;;;20.27;10.30;;;0.10;99.90;;;;;;5015040;28;20158;-65
2022/03/05 06:50:04;;;;;;;15.90;10.40;;;0.00;99.90;;;;;;4997854;28;20173;-63
2022/03/05 06:52:29;;;;;;;21.20;10.67;;;0.10;99.90;;;;;;5014731;28;20200;-64
2022/03/05 06:54:57;;;;;;;19.33;10.73;;;0.10;99.90;;;;;;5014865;28;20201;-63
2022/03/05 06:57:23;;;;;;;18.77;11.10;;;0.20;99.90;;;;;;5014996;28;20250;-63
2022/03/05 06:59:49;;;;;;;21.87;13.33;;;0.30;99.90;;;;;;5014811;28;20252;-64
2022/03/05 07:02:14;;;;;;;23.73;12.57;;;0.30;99.90;;;;;;5015111;28;20174;-64
2022/03/05 07:04:41;;;;;;;20.77;12.57;;;0.30;99.90;;;;;;5014673;28;20162;-63
2022/03/05 07:07:06;;;;;;;24.97;13.47;;;0.40;99.90;;;;;;5014881;28;20331;-64
2022/03/05 07:09:32;;;;;;;19.67;12.30;;;0.40;99.90;;;;;;5016644;28;20608;-65
2022/03/05 07:11:58;;;;;;;18.03;11.00;;;0.40;99.90;;;;;;5031176;28;20170;-64
2022/03/05 07:14:24;;;;;;;19.13;11.83;;;0.40;99.90;;;;;;5030624;28;20301;-64
2022/03/05 07:16:50;;;;;;;19.73;12.70;;;0.50;99.90;;;;;;5024271;28;20201;-64
2022/03/05 07:19:15;;;;;;;21.23;11.87;;;0.40;99.90;;;;;;5002631;28;20192;-64
2022/03/05 07:21:41;;;;;;;16.73;11.00;;;0.50;99.90;;;;;;5014883;28;20173;-63
2022/03/05 07:24:08;;;;;;;17.70;11.23;;;0.40;99.90;;;;;;5014539;28;20193;-63
2022/03/05 07:26:34;;;;;;;17.13;11.30;;;0.60;99.90;;;;;;5014682;28;20232;-63
2022/03/05 07:29:00;;;;;;;17.97;11.57;;;0.60;99.90;;;;;;5015270;28;20158;-63
2022/03/05 07:31:26;;;;;;;18.83;11.70;;;0.50;99.90;;;;;;5014583;28;20173;-63
2022/03/05 07:33:51;;;;;;;20.33;12.20;;;0.50;99.90;;;;;;5014448;28;20207;-64
2022/03/05 07:36:17;;;;;;;21.60;12.40;;;0.60;99.90;;;;;;5014578;28;20176;-64
2022/03/05 07:38:44;;;;;;;23.13;12.93;;;0.50;99.90;;;;;;5014842;28;20189;-65
2022/03/05 07:41:10;;;;;;;23.37;13.37;;;0.70;99.90;;;;;;5014440;28;20161;-64
2022/03/05 07:43:36;;;;;;;30.27;12.37;;;1.00;99.90;;;;;;5014432;28;20184;-65
2022/03/05 07:46:02;;;;;;;19.07;11.07;;;1.10;99.90;;;;;;5013766;28;20174;-63
2022/03/05 07:48:28;;;;;;;20.53;11.40;;;1.30;99.90;;;;;;5014372;28;20273;-65
2022/03/05 07:50:54;;;;;;;20.30;11.60;;;1.40;99.90;;;;;;5014160;28;20180;-64
2022/03/05 07:53:20;;;;;;;25.33;11.97;;;1.30;99.90;;;;;;5013707;28;20190;-63
2022/03/05 07:55:46;;;;;;;19.33;12.13;;;1.30;99.90;;;;;;5014229;28;20176;-63
2022/03/05 07:58:11;;;;;;;22.17;12.27;;;1.40;99.90;;;;;;5014068;28;20614;-62
2022/03/05 08:00:37;;;;;;;22.83;12.13;;;1.50;99.90;;;;;;5013254;28;20181;-64
2022/03/05 08:03:03;;;;;;;18.80;12.50;;;1.50;99.90;;;;;;5014408;28;20208;-63
2022/03/05 08:05:28;;;;;;;21.63;12.40;;;1.60;99.90;;;;;;5014589;28;20178;-64
2022/03/05 08:07:54;;;;;;;18.93;11.37;;;1.70;99.90;;;;;;5014055;28;20545;-64
2022/03/05 08:10:21;;;;;;;18.23;11.07;;;1.70;99.90;;;;;;5014238;28;20168;-65
2022/03/05 08:12:47;;;;;;;17.67;10.93;;;1.80;99.90;;;;;;5014093;28;20220;-64
2022/03/05 08:15:13;;;;;;;17.33;10.70;;;1.70;99.90;;;;;;5013611;28;20593;-64
2022/03/05 08:18:11;;;;;;;18.90;11.07;;;1.90;99.90;;;;;;5013489;28;20170;-63
2022/03/05 08:20:36;;;;;;;17.87;10.53;;;1.90;99.90;;;;;;4970169;28;20217;-64
2022/03/05 08:23:02;;;;;;;15.27;10.27;;;2.10;99.90;;;;;;5013502;28;20621;-63
2022/03/05 08:25:28;;;;;;;18.03;11.10;;;2.10;99.90;;;;;;5014564;28;20219;-64
2022/03/05 08:27:54;;;;;;;19.53;11.30;;;2.10;99.90;;;;;;5014580;28;20506;-65
2022/03/05 08:30:20;;;;;;;16.07;10.67;;;2.20;99.90;;;;;;5015640;28;20199;-64
2022/03/05 08:32:46;;;;;;;13.43;9.27;;;2.10;99.90;;;;;;5014873;28;20169;-63
2022/03/05 08:35:13;;;;;;;21.10;11.23;;;1.90;99.90;;;;;;5020990;28;20213;-61
2022/03/05 08:37:40;;;;;;;16.40;10.60;;;1.90;99.90;;;;;;5000870;28;20280;-65
2022/03/05 08:40:08;;;;;;;18.43;10.87;;;2.20;99.90;;;;;;5019191;28;20193;-65
2022/03/05 08:42:34;;;;;;;17.83;10.50;;;2.00;99.90;;;;;;5019317;28;20253;-64
2022/03/05 08:45:01;;;;;;;19.20;11.43;;;2.00;99.90;;;;;;5021710;28;20610;-64
2022/03/05 08:47:26;;;;;;;20.70;11.27;;;2.30;99.90;;;;;;5019950;28;20178;-64
2022/03/05 08:49:52;;;;;;;18.80;11.70;;;2.50;99.90;;;;;;5019538;28;20170;-65
2022/03/05 08:52:18;;;;;;;18.80;10.53;;;2.40;99.90;;;;;;5014833;28;20669;-64
2022/03/05 08:54:43;;;;;;;23.10;11.80;;;2.50;99.90;;;;;;5013788;28;20691;-64
2022/03/05 08:57:11;;;;;;;17.40;10.33;;;2.50;99.90;;;;;;5018122;28;20244;-63
2022/03/05 08:59:37;;;;;;;15.90;9.43;;;2.60;99.90;;;;;;5020285;28;20154;-65
2022/03/05 09:02:03;;;;;;;13.70;9.13;;;2.80;99.90;;;;;;5023815;28;20169;-79
2022/03/05 09:04:28;;;;;;;18.83;10.33;;;2.90;99.90;;;;;;5022485;28;20181;-65
2022/03/05 09:06:54;;;;;;;14.60;7.57;;;2.90;99.90;;;;;;5017716;28;20649;-65
2022/03/05 09:09:19;;;;;;;14.83;9.57;;;2.80;99.90;;;;;;4999132;28;20177;-63
2022/03/05 09:11:45;;;;;;;14.57;9.53;;;2.70;99.90;;;;;;5017400;28;20223;-64
2022/03/05 09:14:11;;;;;;;15.33;8.87;;;2.80;99.90;;;;;;5016952;28;20486;-64
2022/03/05 09:16:40;;;;;;;14.93;9.67;;;3.10;99.90;;;;;;5016419;28;20162;-64
2022/03/05 09:19:06;;;;;;;16.20;8.40;;;3.20;99.90;;;;;;5017234;28;20189;-64
2022/03/05 09:21:34;;;;;;;13.90;9.77;;;3.10;99.90;;;;;;4999368;28;20188;-63
2022/03/05 09:24:00;;;;;;;12.37;8.00;;;3.30;99.90;;;;;;5017084;28;20215;-63
2022/03/05 09:26:26;;;;;;;17.50;8.23;;;3.40;99.90;;;;;;5016552;28;20654;-63
2022/03/05 09:28:52;;;;;;;15.00;9.03;;;3.50;99.90;;;;;;5016106;28;20185;-64
2022/03/05 09:31:17;;;;;;;16.07;8.53;;;3.50;99.90;;;;;;5016644;28;20181;-63
2022/03/05 09:33:43;;;;;;;16.63;10.67;;;3.40;99.90;;;;;;4999221;28;20282;-64
2022/03/05 09:36:09;;;;;;;19.10;11.47;;;3.70;99.90;;;;;;5016693;28;20590;-64
2022/03/05 09:38:35;;;;;;;12.93;8.70;;;3.70;99.90;;;;;;5016562;28;20663;-63
2022/03/05 09:41:05;;;;;;;16.40;8.67;;;3.50;99.90;;;;;;5016239;28;20206;-63
2022/03/05 09:43:32;;;;;;;12.40;7.03;;;3.30;99.90;;;;;;5016839;28;20517;-65
2022/03/05 09:45:58;;;;;;;16.10;8.57;;;3.50;99.90;;;;;;4999310;28;20181;-63
2022/03/05 09:48:26;;;;;;;15.83;8.97;;;3.50;99.90;;;;;;4998752;28;20197;-63
2022/03/05 09:50:53;;;;;;;12.43;6.93;;;3.50;99.90;;;;;;5016192;28;20221;-63
2022/03/05 09:53:20;;;;;;;14.70;9.23;;;3.60;99.90;;;;;;5016097;28;20288;-63
2022/03/05 09:55:48;;;;;;;14.73;8.87;;;3.80;99.90;;;;;;5016153;28;20169;-65
2022/03/05 09:58:14;;;;;;;13.50;7.93;;;4.00;99.90;;;;;;5015869;28;20264;-62
2022/03/05 10:00:40;;;;;;;13.50;7.03;;;4.10;99.90;;;;;;5016174;28;20229;-64
2022/03/05 10:03:06;;;;;;;13.37;8.60;;;4.10;99.90;;;;;;5015648;28;20510;-64
2022/03/05 10:05:32;;;;;;;12.27;6.80;;;4.00;99.90;;;;;;5016220;28;20177;-64
2022/03/05 10:08:01;;;;;;;10.63;6.63;;;4.20;99.90;;;;;;4998446;28;20802;-64
2022/03/05 10:10:28;;;;;;;12.60;7.13;;;4.30;99.90;;;;;;5014606;28;20173;-65
2022/03/05 10:12:54;;;;;;;10.57;6.33;;;4.50;99.90;;;;;;5015657;28;20173;-64
2022/03/05 10:15:22;;;;;;;11.20;6.90;;;4.50;99.90;;;;;;5015860;28;20647;-63
2022/03/05 10:17:55;;;;;;;11.87;7.07;;;4.60;99.90;;;;;;5015430;28;20166;-64
2022/03/05 10:20:27;;;;;;;11.87;6.33;;;4.70;99.90;;;;;;5015662;28;20159;-63
2022/03/05 10:22:56;;;;;;;9.53;6.43;;;4.90;99.90;;;;;;5015957;28;20319;-64
2022/03/05 10:25:41;;;;;;;7.57;5.37;;;5.00;99.90;;;;;;5020724;28;20206;-64
2022/03/05 10:28:12;;;;;;;11.27;6.50;;;5.00;99.90;;;;;;5031531;28;20283;-65
2022/03/05 10:30:40;;;;;;;9.40;4.50;;;5.10;99.90;;;;;;5026616;28;20228;-65
2022/03/05 10:33:07;;;;;;;6.03;4.30;;;4.90;99.90;;;;;;5028034;28;20160;-64
2022/03/05 10:35:33;;;;;;;7.83;4.77;;;5.30;99.90;;;;;;5029518;28;20551;-65
2022/03/05 10:37:59;;;;;;;11.10;4.37;;;5.50;99.90;;;;;;5027399;28;20168;-65
2022/03/05 10:40:35;;;;;;;7.63;3.53;;;5.50;99.90;;;;;;5014596;28;20178;-65
2022/03/05 10:43:03;;;;;;;4.83;3.47;;;5.60;99.90;;;;;;5008913;28;20181;-64
2022/03/05 10:45:29;;;;;;;5.90;3.70;;;5.50;99.90;;;;;;5018384;28;20540;-64
2022/03/05 10:48:00;;;;;;;5.83;3.97;;;5.40;99.90;;;;;;5016449;28;20166;-64
2022/03/05 10:50:28;;;;;;;12.47;5.70;;;5.50;99.90;;;;;;5015660;28;20156;-63
2022/03/05 10:53:00;;;;;;;10.43;5.47;;;5.40;99.90;;;;;;4997920;28;20188;-64
2022/03/05 10:55:37;;;;;;;11.33;6.10;;;5.60;99.90;;;;;;5014726;28;20582;-65
2022/03/05 10:58:17;;;;;;;7.03;4.03;;;5.70;99.90;;;;;;5015257;28;20161;-65
2022/03/05 11:00:46;;;;;;;5.07;4.13;;;5.60;99.90;;;;;;5015288;28;20617;-65
2022/03/05 11:03:12;;;;;;;8.33;4.73;;;5.30;99.90;;;;;;5014460;28;20162;-63
2022/03/05 11:05:38;;;;;;;10.43;5.27;;;5.30;99.90;;;;;;5015638;28;20173;-65
2022/03/05 11:08:05;;;;;;;9.10;4.93;;;5.40;99.90;;;;;;5014885;28;20513;-64
2022/03/05 11:10:31;;;;;;;10.63;6.37;;;5.40;99.90;;;;;;5014358;28;20176;-65
2022/03/05 11:13:00;;;;;;;9.63;4.80;;;5.30;99.90;;;;;;5014480;28;20236;-65
2022/03/05 11:15:30;;;;;;;9.70;4.87;;;5.30;99.90;;;;;;4996740;28;20194;-63
2022/03/05 11:17:58;;;;;;;8.03;4.27;;;5.40;99.90;;;;;;5000506;28;20268;-64
2022/03/05 11:20:24;;;;;;;9.70;5.50;;;5.30;99.90;;;;;;5017184;28;20163;-64
2022/03/05 11:22:50;;;;;;;7.10;4.00;;;5.40;99.90;;;;;;5015970;28;20169;-66
2022/03/05 11:25:21;;;;;;;6.53;4.30;;;5.60;99.90;;;;;;5019466;28;20248;-64
2022/03/05 11:28:03;;;;;;;7.00;4.30;;;5.50;99.90;;;;;;5002200;28;20273;-65
2022/03/05 11:30:42;;;;;;;7.83;4.47;;;5.60;99.90;;;;;;5021166;28;20166;-65
2022/03/05 11:33:12;;;;;;;9.43;5.37;;;5.60;99.90;;;;;;5019470;28;20792;-65
2022/03/05 11:35:43;;;;;;;6.87;4.43;;;5.60;99.90;;;;;;5019456;28;20172;-66
2022/03/05 11:38:32;;;;;;;10.37;5.73;;;5.60;99.90;;;;;;5019526;28;20163;-64
2022/03/05 11:40:58;;;;;;;23.13;12.73;;;5.80;99.90;;;;;;5021573;28;20198;-64
2022/03/05 11:43:25;;;;;;;17.17;9.67;;;5.80;99.90;;;;;;5022002;28;20513;-67
2022/03/05 11:45:56;;;;;;;10.27;5.57;;;5.90;99.90;;;;;;5017121;28;20174;-63
2022/03/05 11:48:24;;;;;;;8.00;4.07;;;5.80;99.90;;;;;;5016144;28;20177;-63
2022/03/05 11:50:58;;;;;;;6.17;4.20;;;5.90;99.90;;;;;;5018654;28;20247;-64
2022/03/05 11:53:25;;;;;;;5.43;3.70;;;5.90;99.90;;;;;;5023389;28;20196;-64
2022/03/05 11:55:51;;;;;;;8.50;3.90;;;5.60;99.90;;;;;;5023364;28;20169;-65
2022/03/05 11:58:24;;;;;;;6.50;3.73;;;5.70;99.90;;;;;;5019717;28;20167;-64
2022/03/05 12:00:52;;;;;;;5.30;3.70;;;5.80;99.90;;;;;;5023735;28;20197;-64
2022/03/05 12:03:42;;;;;;;4.83;3.50;;;5.70;99.90;;;;;;5024838;28;20601;-64
2022/03/05 12:06:10;;;;;;;5.43;3.40;;;5.80;99.90;;;;;;5019584;28;20266;-64
2022/03/05 12:08:39;;;;;;;5.47;3.53;;;5.80;99.90;;;;;;5006637;28;20615;-64
2022/03/05 12:11:13;;;;;;;6.27;3.83;;;5.80;99.90;;;;;;5019125;28;20725;-64
2022/03/05 12:13:51;;;;;;;4.37;3.17;;;6.10;99.90;;;;;;5014473;28;20203;-65
2022/03/05 12:16:19;;;;;;;5.77;3.63;;;6.10;99.90;;;;;;4996678;28;20610;-64
2022/03/05 12:18:46;;;;;;;8.27;3.67;;;6.20;99.90;;;;;;5014028;28;20166;-63
2022/03/05 12:21:12;;;;;;;4.50;3.03;;;6.10;99.90;;;;;;5013414;28;20182;-64
2022/03/05 12:23:38;;;;;;;5.07;2.70;;;6.10;99.90;;;;;;5012210;28;20185;-63
2022/03/05 12:26:05;;;;;;;7.50;3.90;;;6.20;99.90;;;;;;5013499;28;20188;-65
2022/03/05 12:28:44;;;;;;;5.00;3.20;;;6.20;99.90;;;;;;5013857;28;20200;-64
2022/03/05 12:31:19;;;;;;;3.30;2.67;;;6.60;99.90;;;;;;5013653;28;20197;-64
2022/03/05 12:33:48;;;;;;;3.57;2.90;;;6.60;99.90;;;;;;5016415;28;20198;-63
2022/03/05 12:36:18;;;;;;;6.73;3.80;;;6.40;99.90;;;;;;5017743;28;20176;-63
2022/03/05 12:38:52;;;;;;;5.17;2.60;;;6.40;99.90;;;;;;5017802;28;20245;-63
2022/03/05 12:41:18;;;;;;;5.57;3.57;;;6.40;99.90;;;;;;5017706;28;20258;-64
2022/03/05 12:43:44;;;;;;;7.23;3.73;;;6.20;99.90;;;;;;5017493;28;20254;-66
2022/03/05 12:46:10;;;;;;;4.20;3.40;;;6.10;99.90;;;;;;5000130;28;20655;-64